sensor_id;sensor_type;location;lat;lon;timestamp;pressure;altitude;pressure_sealevel;temperature;humidity
11878;BME280;5998;42.676;23.268;2023-03-16T00:01:46;93997.25;;;3.45;100.00
11878;BME280;5998;42.676;23.268;2023-03-16T00:04:12;93997.53;;;3.43;100.00
11878;BME280;5998;42.676;23.268;2023-03-16T00:06:39;94008.50;;;3.42;100.00
11878;BME280;5998;42.676;23.268;2023-03-16T00:09:06;94000.84;;;3.40;100.00
11878;BME280;5998;42.676;23.268;2023-03-16T00:11:34;94007.44;;;3.43;100.00
11878;BME280;5998;42.676;23.268;2023-03-16T00:14:00;94002.25;;;3.38;100.00
11878;BME280;5998;42.676;23.268;2023-03-16T00:16:29;94009.31;;;3.42;100.00
11878;BME280;5998;42.676;23.268;2023-03-16T00:18:56;94015.72;;;3.50;100.00
11878;BME280;5998;42.676;23.268;2023-03-16T00:21:23;94016.81;;;3.40;100.00
11878;BME280;5998;42.676;23.268;2023-03-16T00:23:50;94015.09;;;3.44;100.00
11878;BME280;5998;42.676;23.268;2023-03-16T00:26:17;94020.56;;;3.31;100.00
11878;BME280;5998;42.676;23.268;2023-03-16T00:28:44;94017.09;;;3.13;100.00
11878;BME280;5998;42.676;23.268;2023-03-16T00:31:11;94020.25;;;3.24;100.00
11878;BME280;5998;42.676;23.268;2023-03-16T00:33:43;94028.53;;;3.22;100.00
11878;BME280;5998;42.676;23.268;2023-03-16T00:36:10;94020.72;;;3.17;100.00
11878;BME280;5998;42.676;23.268;2023-03-16T00:38:39;94029.31;;;3.06;100.00
11878;BME280;5998;42.676;23.268;2023-03-16T00:41:10;94023.19;;;3.05;100.00
11878;BME280;5998;42.676;23.268;2023-03-16T00:43:39;94035.09;;;3.16;100.00
11878;BME280;5998;42.676;23.268;2023-03-16T00:46:07;94041.22;;;3.17;100.00
11878;BME280;5998;42.676;23.268;2023-03-16T00:48:35;94028.69;;;3.09;100.00
11878;BME280;5998;42.676;23.268;2023-03-16T00:51:05;94048.28;;;3.21;100.00
11878;BME280;5998;42.676;23.268;2023-03-16T00:53:33;94047.28;;;3.00;100.00
11878;BME280;5998;42.676;23.268;2023-03-16T00:56:00;94047.00;;;3.02;100.00
11878;BME280;5998;42.676;23.268;2023-03-16T00:58:28;94042.44;;;2.93;100.00
11878;BME280;5998;42.676;23.268;2023-03-16T01:01:00;94039.91;;;2.80;100.00
11878;BME280;5998;42.676;23.268;2023-03-16T01:03:26;94030.53;;;2.82;100.00
11878;BME280;5998;42.676;23.268;2023-03-16T01:05:53;94039.91;;;2.88;100.00
11878;BME280;5998;42.676;23.268;2023-03-16T01:08:26;94036.66;;;3.00;100.00
11878;BME280;5998;42.676;23.268;2023-03-16T01:10:53;94047.13;;;3.05;100.00
11878;BME280;5998;42.676;23.268;2023-03-16T01:13:20;94045.09;;;3.11;100.00
11878;BME280;5998;42.676;23.268;2023-03-16T01:15:49;94043.72;;;3.22;100.00
11878;BME280;5998;42.676;23.268;2023-03-16T01:18:16;94044.97;;;3.33;100.00
11878;BME280;5998;42.676;23.268;2023-03-16T01:20:42;94037.94;;;3.37;100.00
11878;BME280;5998;42.676;23.268;2023-03-16T01:23:15;94035.13;;;3.33;100.00
11878;BME280;5998;42.676;23.268;2023-03-16T01:25:43;94041.22;;;3.25;100.00
11878;BME280;5998;42.676;23.268;2023-03-16T01:28:17;94047.00;;;3.19;100.00
11878;BME280;5998;42.676;23.268;2023-03-16T01:30:44;94046.06;;;3.15;100.00
11878;BME280;5998;42.676;23.268;2023-03-16T01:33:11;94041.97;;;3.09;100.00
11878;BME280;5998;42.676;23.268;2023-03-16T01:35:37;94044.78;;;2.95;100.00
11878;BME280;5998;42.676;23.268;2023-03-16T01:38:04;94044.28;;;2.84;100.00
11878;BME280;5998;42.676;23.268;2023-03-16T01:40:31;94053.84;;;2.85;100.00
11878;BME280;5998;42.676;23.268;2023-03-16T01:43:02;94056.66;;;2.89;100.00
11878;BME280;5998;42.676;23.268;2023-03-16T01:48:41;94051.63;;;2.79;100.00
11878;BME280;5998;42.676;23.268;2023-03-16T01:51:13;94062.09;;;2.75;100.00
11878;BME280;5998;42.676;23.268;2023-03-16T01:53:43;94054.25;;;2.70;100.00
11878;BME280;5998;42.676;23.268;2023-03-16T01:56:13;94058.31;;;2.68;100.00
11878;BME280;5998;42.676;23.268;2023-03-16T01:58:43;94054.59;;;2.69;100.00
11878;BME280;5998;42.676;23.268;2023-03-16T02:01:11;94062.06;;;2.67;100.00
11878;BME280;5998;42.676;23.268;2023-03-16T02:03:40;94070.63;;;2.55;100.00
11878;BME280;5998;42.676;23.268;2023-03-16T02:06:10;94077.47;;;2.48;100.00
11878;BME280;5998;42.676;23.268;2023-03-16T02:08:39;94079.84;;;2.49;100.00
11878;BME280;5998;42.676;23.268;2023-03-16T02:11:07;94076.38;;;2.49;100.00
11878;BME280;5998;42.676;23.268;2023-03-16T02:13:34;94086.69;;;2.50;100.00
11878;BME280;5998;42.676;23.268;2023-03-16T02:16:04;94074.91;;;2.34;100.00
11878;BME280;5998;42.676;23.268;2023-03-16T02:18:32;94097.00;;;2.43;100.00
11878;BME280;5998;42.676;23.268;2023-03-16T02:21:04;94098.81;;;2.34;100.00
11878;BME280;5998;42.676;23.268;2023-03-16T02:23:32;94097.25;;;2.33;100.00
11878;BME280;5998;42.676;23.268;2023-03-16T02:26:02;94107.28;;;2.36;100.00
11878;BME280;5998;42.676;23.268;2023-03-16T02:28:36;94109.25;;;2.53;100.00
11878;BME280;5998;42.676;23.268;2023-03-16T02:31:08;94107.81;;;2.47;100.00
11878;BME280;5998;42.676;23.268;2023-03-16T02:33:37;94109.88;;;2.58;100.00
11878;BME280;5998;42.676;23.268;2023-03-16T02:36:05;94113.91;;;2.56;100.00
11878;BME280;5998;42.676;23.268;2023-03-16T02:38:32;94119.88;;;2.61;100.00
11878;BME280;5998;42.676;23.268;2023-03-16T02:41:00;94111.25;;;2.47;100.00
11878;BME280;5998;42.676;23.268;2023-03-16T02:43:33;94118.56;;;2.50;100.00
11878;BME280;5998;42.676;23.268;2023-03-16T02:46:01;94118.56;;;2.50;100.00
11878;BME280;5998;42.676;23.268;2023-03-16T02:48:35;94121.13;;;2.64;100.00
11878;BME280;5998;42.676;23.268;2023-03-16T02:51:03;94121.13;;;2.64;100.00
11878;BME280;5998;42.676;23.268;2023-03-16T02:53:30;94122.84;;;2.60;100.00
11878;BME280;5998;42.676;23.268;2023-03-16T02:55:57;94123.88;;;2.50;100.00
11878;BME280;5998;42.676;23.268;2023-03-16T02:58:23;94121.38;;;2.45;100.00
11878;BME280;5998;42.676;23.268;2023-03-16T03:00:50;94119.16;;;2.38;100.00
11878;BME280;5998;42.676;23.268;2023-03-16T03:03:17;94125.13;;;2.44;100.00
11878;BME280;5998;42.676;23.268;2023-03-16T03:05:45;94131.88;;;2.50;100.00
11878;BME280;5998;42.676;23.268;2023-03-16T03:08:13;94129.66;;;2.44;100.00
11878;BME280;5998;42.676;23.268;2023-03-16T03:10:40;94127.13;;;2.38;100.00
11878;BME280;5998;42.676;23.268;2023-03-16T03:13:06;94137.59;;;2.35;100.00
11878;BME280;5998;42.676;23.268;2023-03-16T03:15:33;94144.03;;;2.43;100.00
11878;BME280;5998;42.676;23.268;2023-03-16T03:18:00;94141.72;;;2.19;100.00
11878;BME280;5998;42.676;23.268;2023-03-16T03:20:28;94148.69;;;2.15;100.00
11878;BME280;5998;42.676;23.268;2023-03-16T03:22:56;94150.75;;;2.18;100.00
11878;BME280;5998;42.676;23.268;2023-03-16T03:25:23;94156.44;;;2.25;100.00
11878;BME280;5998;42.676;23.268;2023-03-16T03:27:50;94159.75;;;2.30;100.00
11878;BME280;5998;42.676;23.268;2023-03-16T03:30:20;94161.63;;;2.30;100.00
11878;BME280;5998;42.676;23.268;2023-03-16T03:32:47;94168.56;;;2.17;100.00
11878;BME280;5998;42.676;23.268;2023-03-16T03:35:14;94163.56;;;2.16;100.00
11878;BME280;5998;42.676;23.268;2023-03-16T03:37:42;94163.16;;;2.31;100.00
11878;BME280;5998;42.676;23.268;2023-03-16T03:40:12;94161.97;;;2.15;100.00
11878;BME280;5998;42.676;23.268;2023-03-16T03:42:40;94160.53;;;2.09;100.00
11878;BME280;5998;42.676;23.268;2023-03-16T03:45:08;94166.47;;;2.06;100.00
11878;BME280;5998;42.676;23.268;2023-03-16T03:47:37;94167.28;;;1.93;100.00
11878;BME280;5998;42.676;23.268;2023-03-16T03:50:04;94171.88;;;2.01;100.00
11878;BME280;5998;42.676;23.268;2023-03-16T03:52:31;94162.56;;;1.90;100.00
11878;BME280;5998;42.676;23.268;2023-03-16T03:54:58;94175.75;;;1.95;100.00
11878;BME280;5998;42.676;23.268;2023-03-16T03:57:26;94180.28;;;1.94;100.00
11878;BME280;5998;42.676;23.268;2023-03-16T03:59:52;94184.13;;;1.88;100.00
11878;BME280;5998;42.676;23.268;2023-03-16T04:02:19;94188.22;;;1.94;100.00
11878;BME280;5998;42.676;23.268;2023-03-16T04:04:46;94193.63;;;2.03;100.00
11878;BME280;5998;42.676;23.268;2023-03-16T04:07:13;94172.84;;;1.83;100.00
11878;BME280;5998;42.676;23.268;2023-03-16T04:09:39;94188.22;;;1.94;100.00
11878;BME280;5998;42.676;23.268;2023-03-16T04:12:07;94172.97;;;2.00;100.00
11878;BME280;5998;42.676;23.268;2023-03-16T04:14:35;94185.88;;;2.15;100.00
11878;BME280;5998;42.676;23.268;2023-03-16T04:17:01;94189.44;;;2.10;100.00
11878;BME280;5998;42.676;23.268;2023-03-16T04:19:29;94186.84;;;2.19;100.00
11878;BME280;5998;42.676;23.268;2023-03-16T04:21:55;94188.84;;;2.35;100.00
11878;BME280;5998;42.676;23.268;2023-03-16T04:24:22;94199.53;;;2.44;100.00
11878;BME280;5998;42.676;23.268;2023-03-16T04:26:49;94197.47;;;2.41;100.00
11878;BME280;5998;42.676;23.268;2023-03-16T04:29:16;94205.44;;;2.41;100.00
11878;BME280;5998;42.676;23.268;2023-03-16T04:31:44;94198.16;;;2.24;100.00
11878;BME280;5998;42.676;23.268;2023-03-16T04:34:12;94208.28;;;2.22;100.00
11878;BME280;5998;42.676;23.268;2023-03-16T04:36:39;94212.38;;;2.28;100.00
11878;BME280;5998;42.676;23.268;2023-03-16T04:39:07;94214.31;;;2.36;100.00
11878;BME280;5998;42.676;23.268;2023-03-16T04:41:34;94216.53;;;2.43;100.00
11878;BME280;5998;42.676;23.268;2023-03-16T04:44:01;94232.59;;;2.38;100.00
11878;BME280;5998;42.676;23.268;2023-03-16T04:46:29;94230.69;;;2.30;100.00
11878;BME280;5998;42.676;23.268;2023-03-16T04:48:57;94230.75;;;2.38;100.00
11878;BME280;5998;42.676;23.268;2023-03-16T04:51:23;94220.91;;;2.17;100.00
11878;BME280;5998;42.676;23.268;2023-03-16T04:53:50;94224.09;;;2.27;100.00
11878;BME280;5998;42.676;23.268;2023-03-16T04:56:17;94216.19;;;2.14;100.00
11878;BME280;5998;42.676;23.268;2023-03-16T04:58:44;94235.38;;;2.33;100.00
11878;BME280;5998;42.676;23.268;2023-03-16T05:01:11;94242.44;;;2.37;100.00
11878;BME280;5998;42.676;23.268;2023-03-16T05:03:39;94248.56;;;2.38;100.00
11878;BME280;5998;42.676;23.268;2023-03-16T05:06:07;94233.06;;;2.18;100.00
11878;BME280;5998;42.676;23.268;2023-03-16T05:08:34;94243.69;;;2.18;100.00
11878;BME280;5998;42.676;23.268;2023-03-16T05:11:01;94253.47;;;2.31;100.00
11878;BME280;5998;42.676;23.268;2023-03-16T05:13:27;94252.34;;;2.23;100.00
11878;BME280;5998;42.676;23.268;2023-03-16T05:15:54;94258.63;;;2.50;100.00
11878;BME280;5998;42.676;23.268;2023-03-16T05:18:21;94259.38;;;2.42;100.00
11878;BME280;5998;42.676;23.268;2023-03-16T05:20:49;94257.47;;;2.42;100.00
11878;BME280;5998;42.676;23.268;2023-03-16T05:23:17;94255.13;;;2.41;100.00
11878;BME280;5998;42.676;23.268;2023-03-16T05:25:45;94255.53;;;2.34;100.00
11878;BME280;5998;42.676;23.268;2023-03-16T05:28:12;94262.47;;;2.21;100.00
11878;BME280;5998;42.676;23.268;2023-03-16T05:30:39;94253.13;;;2.24;100.00
11878;BME280;5998;42.676;23.268;2023-03-16T05:33:06;94272.56;;;2.11;100.00
11878;BME280;5998;42.676;23.268;2023-03-16T05:35:33;94268.84;;;1.98;100.00
11878;BME280;5998;42.676;23.268;2023-03-16T05:37:59;94275.53;;;1.96;100.00
11878;BME280;5998;42.676;23.268;2023-03-16T05:40:28;94276.41;;;2.05;100.00
11878;BME280;5998;42.676;23.268;2023-03-16T05:42:56;94281.47;;;2.15;100.00
11878;BME280;5998;42.676;23.268;2023-03-16T05:45:25;94281.22;;;2.03;100.00
11878;BME280;5998;42.676;23.268;2023-03-16T05:47:52;94287.41;;;1.98;100.00
11878;BME280;5998;42.676;23.268;2023-03-16T05:50:18;94294.72;;;1.79;100.00
11878;BME280;5998;42.676;23.268;2023-03-16T05:52:46;94294.63;;;1.84;100.00
11878;BME280;5998;42.676;23.268;2023-03-16T05:55:15;94300.69;;;1.98;100.00
11878;BME280;5998;42.676;23.268;2023-03-16T05:57:43;94303.91;;;2.09;100.00
11878;BME280;5998;42.676;23.268;2023-03-16T06:00:12;94291.97;;;1.98;100.00
11878;BME280;5998;42.676;23.268;2023-03-16T06:02:40;94303.84;;;2.00;100.00
11878;BME280;5998;42.676;23.268;2023-03-16T06:05:07;94308.06;;;2.01;100.00
11878;BME280;5998;42.676;23.268;2023-03-16T06:07:34;94307.88;;;2.11;100.00
11878;BME280;5998;42.676;23.268;2023-03-16T06:10:02;94308.66;;;2.34;100.00
11878;BME280;5998;42.676;23.268;2023-03-16T06:12:29;94312.72;;;2.31;100.00
11878;BME280;5998;42.676;23.268;2023-03-16T06:14:57;94314.19;;;2.37;100.00
11878;BME280;5998;42.676;23.268;2023-03-16T06:17:24;94311.31;;;2.34;100.00
11878;BME280;5998;42.676;23.268;2023-03-16T06:19:51;94315.72;;;2.52;100.00
11878;BME280;5998;42.676;23.268;2023-03-16T06:22:18;94316.72;;;2.65;100.00
11878;BME280;5998;42.676;23.268;2023-03-16T06:24:44;94295.16;;;2.44;100.00
11878;BME280;5998;42.676;23.268;2023-03-16T06:27:11;94325.97;;;2.67;100.00
11878;BME280;5998;42.676;23.268;2023-03-16T06:29:38;94329.53;;;2.63;100.00
11878;BME280;5998;42.676;23.268;2023-03-16T06:32:07;94325.31;;;2.62;100.00
11878;BME280;5998;42.676;23.268;2023-03-16T06:34:33;94336.91;;;2.66;100.00
11878;BME280;5998;42.676;23.268;2023-03-16T06:37:01;94322.03;;;2.43;100.00
11878;BME280;5998;42.676;23.268;2023-03-16T06:39:28;94337.81;;;2.61;100.00
11878;BME280;5998;42.676;23.268;2023-03-16T06:41:55;94339.13;;;2.72;100.00
11878;BME280;5998;42.676;23.268;2023-03-16T06:44:22;94349.41;;;2.65;100.00
11878;BME280;5998;42.676;23.268;2023-03-16T06:46:49;94355.16;;;2.81;100.00
11878;BME280;5998;42.676;23.268;2023-03-16T06:49:17;94355.28;;;2.76;100.00
11878;BME280;5998;42.676;23.268;2023-03-16T06:51:44;94354.31;;;2.72;100.00
11878;BME280;5998;42.676;23.268;2023-03-16T06:54:11;94365.78;;;2.81;100.00
11878;BME280;5998;42.676;23.268;2023-03-16T06:56:37;94361.78;;;2.70;100.00
11878;BME280;5998;42.676;23.268;2023-03-16T06:59:04;94372.31;;;2.53;100.00
11878;BME280;5998;42.676;23.268;2023-03-16T07:01:31;94368.13;;;2.60;100.00
11878;BME280;5998;42.676;23.268;2023-03-16T07:03:57;94373.38;;;2.52;100.00
11878;BME280;5998;42.676;23.268;2023-03-16T07:06:25;94368.69;;;2.71;100.00
11878;BME280;5998;42.676;23.268;2023-03-16T07:08:52;94380.03;;;2.63;100.00
11878;BME280;5998;42.676;23.268;2023-03-16T07:11:19;94380.22;;;2.66;100.00
11878;BME280;5998;42.676;23.268;2023-03-16T07:13:45;94389.47;;;2.69;100.00
11878;BME280;5998;42.676;23.268;2023-03-16T07:16:12;94388.41;;;2.56;100.00
11878;BME280;5998;42.676;23.268;2023-03-16T07:18:39;94387.66;;;2.42;100.00
11878;BME280;5998;42.676;23.268;2023-03-16T07:21:08;94389.81;;;2.40;100.00
11878;BME280;5998;42.676;23.268;2023-03-16T07:23:36;94391.78;;;2.48;100.00
11878;BME280;5998;42.676;23.268;2023-03-16T07:26:03;94394.72;;;2.60;100.00
11878;BME280;5998;42.676;23.268;2023-03-16T07:28:32;94397.44;;;2.69;100.00
11878;BME280;5998;42.676;23.268;2023-03-16T07:30:59;94402.00;;;2.90;100.00
11878;BME280;5998;42.676;23.268;2023-03-16T07:33:25;94400.22;;;2.86;100.00
11878;BME280;5998;42.676;23.268;2023-03-16T07:35:52;94396.00;;;2.85;100.00
11878;BME280;5998;42.676;23.268;2023-03-16T07:38:19;94402.72;;;2.82;100.00
11878;BME280;5998;42.676;23.268;2023-03-16T07:40:47;94397.63;;;2.72;100.00
11878;BME280;5998;42.676;23.268;2023-03-16T07:43:16;94403.47;;;2.96;100.00
11878;BME280;5998;42.676;23.268;2023-03-16T07:45:47;94368.97;;;2.69;100.00
11878;BME280;5998;42.676;23.268;2023-03-16T07:48:14;94412.47;;;3.09;100.00
11878;BME280;5998;42.676;23.268;2023-03-16T07:50:41;94407.91;;;2.87;100.00
11878;BME280;5998;42.676;23.268;2023-03-16T07:53:08;94410.34;;;2.97;100.00
11878;BME280;5998;42.676;23.268;2023-03-16T07:55:35;94420.78;;;2.94;100.00
11878;BME280;5998;42.676;23.268;2023-03-16T07:58:04;94417.44;;;3.02;100.00
11878;BME280;5998;42.676;23.268;2023-03-16T08:00:31;94411.97;;;2.85;100.00
11878;BME280;5998;42.676;23.268;2023-03-16T08:02:58;94409.13;;;2.81;100.00
11878;BME280;5998;42.676;23.268;2023-03-16T08:05:26;94413.75;;;2.76;100.00
11878;BME280;5998;42.676;23.268;2023-03-16T08:07:53;94418.78;;;2.77;100.00
11878;BME280;5998;42.676;23.268;2023-03-16T08:10:20;94421.69;;;2.89;100.00
11878;BME280;5998;42.676;23.268;2023-03-16T08:12:47;94414.31;;;2.86;100.00
11878;BME280;5998;42.676;23.268;2023-03-16T08:15:15;94413.34;;;2.82;100.00
11878;BME280;5998;42.676;23.268;2023-03-16T08:17:42;94375.84;;;2.48;100.00
11878;BME280;5998;42.676;23.268;2023-03-16T08:20:10;94423.38;;;2.85;100.00
11878;BME280;5998;42.676;23.268;2023-03-16T08:22:39;94426.66;;;2.82;100.00
11878;BME280;5998;42.676;23.268;2023-03-16T08:25:07;94423.19;;;2.82;100.00
11878;BME280;5998;42.676;23.268;2023-03-16T08:27:35;94434.19;;;2.89;100.00
11878;BME280;5998;42.676;23.268;2023-03-16T08:30:03;94435.69;;;2.81;100.00
11878;BME280;5998;42.676;23.268;2023-03-16T08:32:32;94431.78;;;2.79;100.00
11878;BME280;5998;42.676;23.268;2023-03-16T08:34:59;94430.72;;;3.02;100.00
11878;BME280;5998;42.676;23.268;2023-03-16T08:37:25;94429.50;;;3.08;100.00
11878;BME280;5998;42.676;23.268;2023-03-16T08:39:52;94441.00;;;3.17;100.00
11878;BME280;5998;42.676;23.268;2023-03-16T08:42:19;94435.81;;;3.34;100.00
11878;BME280;5998;42.676;23.268;2023-03-16T08:44:46;94411.91;;;3.21;100.00
11878;BME280;5998;42.676;23.268;2023-03-16T08:47:13;94433.34;;;3.46;100.00
11878;BME280;5998;42.676;23.268;2023-03-16T08:49:41;94430.22;;;3.44;100.00
11878;BME280;5998;42.676;23.268;2023-03-16T08:52:09;94445.19;;;3.32;100.00
11878;BME280;5998;42.676;23.268;2023-03-16T08:54:37;94440.88;;;3.44;100.00
11878;BME280;5998;42.676;23.268;2023-03-16T08:57:06;94445.09;;;3.68;100.00
11878;BME280;5998;42.676;23.268;2023-03-16T08:59:34;94438.44;;;3.56;100.00
11878;BME280;5998;42.676;23.268;2023-03-16T09:02:02;94437.88;;;3.68;100.00
11878;BME280;5998;42.676;23.268;2023-03-16T09:04:28;94448.75;;;3.80;100.00
11878;BME280;5998;42.676;23.268;2023-03-16T09:06:58;94449.97;;;3.74;100.00
11878;BME280;5998;42.676;23.268;2023-03-16T09:09:25;94438.84;;;3.72;100.00
11878;BME280;5998;42.676;23.268;2023-03-16T09:11:51;94446.34;;;3.70;100.00
11878;BME280;5998;42.676;23.268;2023-03-16T09:14:18;94451.88;;;3.51;100.00
11878;BME280;5998;42.676;23.268;2023-03-16T09:16:45;94449.75;;;3.62;100.00
11878;BME280;5998;42.676;23.268;2023-03-16T09:19:12;94445.13;;;3.76;100.00
11878;BME280;5998;42.676;23.268;2023-03-16T09:21:39;94443.22;;;3.77;100.00
11878;BME280;5998;42.676;23.268;2023-03-16T09:24:07;94464.72;;;3.80;100.00
11878;BME280;5998;42.676;23.268;2023-03-16T09:26:34;94458.47;;;3.85;100.00
11878;BME280;5998;42.676;23.268;2023-03-16T09:29:02;94458.31;;;3.81;100.00
11878;BME280;5998;42.676;23.268;2023-03-16T09:31:31;94454.50;;;3.74;100.00
11878;BME280;5998;42.676;23.268;2023-03-16T09:33:58;94460.19;;;3.81;100.00
11878;BME280;5998;42.676;23.268;2023-03-16T09:36:25;94455.69;;;3.59;100.00
11878;BME280;5998;42.676;23.268;2023-03-16T09:38:52;94459.13;;;3.60;100.00
11878;BME280;5998;42.676;23.268;2023-03-16T09:41:30;94459.38;;;3.49;100.00
11878;BME280;5998;42.676;23.268;2023-03-16T09:44:04;94466.16;;;3.55;100.00
11878;BME280;5998;42.676;23.268;2023-03-16T09:46:36;94468.41;;;3.40;100.00
11878;BME280;5998;42.676;23.268;2023-03-16T09:49:07;94463.81;;;3.32;100.00
11878;BME280;5998;42.676;23.268;2023-03-16T09:51:37;94465.72;;;3.40;100.00
11878;BME280;5998;42.676;23.268;2023-03-16T09:54:12;94467.22;;;3.54;100.00
11878;BME280;5998;42.676;23.268;2023-03-16T09:56:44;94471.13;;;3.48;100.00
11878;BME280;5998;42.676;23.268;2023-03-16T09:59:13;94471.66;;;3.59;100.00
11878;BME280;5998;42.676;23.268;2023-03-16T10:01:49;94469.66;;;3.65;100.00
11878;BME280;5998;42.676;23.268;2023-03-16T10:04:33;94468.84;;;3.64;100.00
11878;BME280;5998;42.676;23.268;2023-03-16T10:07:08;94477.09;;;3.85;100.00
11878;BME280;5998;42.676;23.268;2023-03-16T10:09:44;94474.53;;;4.02;100.00
11878;BME280;5998;42.676;23.268;2023-03-16T10:12:14;94469.53;;;4.00;100.00
11878;BME280;5998;42.676;23.268;2023-03-16T10:14:46;94471.97;;;3.88;100.00
11878;BME280;5998;42.676;23.268;2023-03-16T10:17:19;94474.94;;;3.87;100.00
11878;BME280;5998;42.676;23.268;2023-03-16T10:19:49;94467.84;;;3.82;100.00
11878;BME280;5998;42.676;23.268;2023-03-16T10:22:20;94467.16;;;3.68;100.00
11878;BME280;5998;42.676;23.268;2023-03-16T10:25:05;94472.66;;;3.49;100.00
11878;BME280;5998;42.676;23.268;2023-03-16T10:27:39;94475.72;;;3.56;100.00
11878;BME280;5998;42.676;23.268;2023-03-16T10:30:17;94472.78;;;3.67;100.00
11878;BME280;5998;42.676;23.268;2023-03-16T10:32:45;94462.56;;;3.60;100.00
11878;BME280;5998;42.676;23.268;2023-03-16T10:35:21;94481.56;;;3.67;100.00
11878;BME280;5998;42.676;23.268;2023-03-16T10:37:52;94470.47;;;3.74;100.00
11878;BME280;5998;42.676;23.268;2023-03-16T10:40:21;94468.91;;;3.73;100.00
11878;BME280;5998;42.676;23.268;2023-03-16T10:42:49;94477.38;;;3.52;100.00
11878;BME280;5998;42.676;23.268;2023-03-16T10:45:24;94466.63;;;3.35;100.00
11878;BME280;5998;42.676;23.268;2023-03-16T10:47:51;94464.81;;;3.44;100.00
11878;BME280;5998;42.676;23.268;2023-03-16T10:50:22;94472.25;;;3.56;100.00
11878;BME280;5998;42.676;23.268;2023-03-16T10:52:53;94463.22;;;3.66;100.00
11878;BME280;5998;42.676;23.268;2023-03-16T10:55:22;94462.09;;;3.58;100.00
11878;BME280;5998;42.676;23.268;2023-03-16T10:57:52;94453.44;;;3.52;100.00
11878;BME280;5998;42.676;23.268;2023-03-16T11:00:21;94467.22;;;3.54;100.00
11878;BME280;5998;42.676;23.268;2023-03-16T11:02:49;94462.13;;;3.67;100.00
11878;BME280;5998;42.676;23.268;2023-03-16T11:05:24;94461.78;;;3.60;100.00
11878;BME280;5998;42.676;23.268;2023-03-16T11:07:57;94458.16;;;3.55;100.00
11878;BME280;5998;42.676;23.268;2023-03-16T11:10:29;94472.06;;;3.52;100.00
11878;BME280;5998;42.676;23.268;2023-03-16T11:13:10;94456.56;;;3.54;100.00
11878;BME280;5998;42.676;23.268;2023-03-16T11:15:41;94460.53;;;3.57;100.00
11878;BME280;5998;42.676;23.268;2023-03-16T11:18:19;94466.81;;;3.61;100.00
11878;BME280;5998;42.676;23.268;2023-03-16T11:20:49;94472.72;;;3.58;100.00
11878;BME280;5998;42.676;23.268;2023-03-16T11:23:18;94472.47;;;3.68;100.00
11878;BME280;5998;42.676;23.268;2023-03-16T11:25:48;94468.06;;;3.64;100.00
11878;BME280;5998;42.676;23.268;2023-03-16T11:28:23;94462.31;;;3.70;100.00
11878;BME280;5998;42.676;23.268;2023-03-16T11:31:05;94469.03;;;3.68;100.00
11878;BME280;5998;42.676;23.268;2023-03-16T11:33:34;94463.34;;;3.61;100.00
11878;BME280;5998;42.676;23.268;2023-03-16T11:36:16;94474.00;;;3.61;100.00
11878;BME280;5998;42.676;23.268;2023-03-16T11:38:49;94474.25;;;3.50;100.00
11878;BME280;5998;42.676;23.268;2023-03-16T11:41:21;94454.59;;;3.38;100.00
11878;BME280;5998;42.676;23.268;2023-03-16T11:43:55;94460.53;;;3.57;100.00
11878;BME280;5998;42.676;23.268;2023-03-16T11:46:25;94478.72;;;3.64;100.00
11878;BME280;5998;42.676;23.268;2023-03-16T11:49:12;94474.59;;;3.57;100.00
11878;BME280;5998;42.676;23.268;2023-03-16T11:51:43;94470.84;;;3.58;100.00
11878;BME280;5998;42.676;23.268;2023-03-16T11:54:29;94478.78;;;3.50;100.00
11878;BME280;5998;42.676;23.268;2023-03-16T11:57:06;;;;3.43;
11878;BME280;5998;42.676;23.268;2023-03-16T11:59:53;94478.53;;;3.38;100.00
11878;BME280;5998;42.676;23.268;2023-03-16T12:02:38;94483.97;;;3.33;100.00
11878;BME280;5998;42.676;23.268;2023-03-16T12:05:38;94492.94;;;3.37;100.00
11878;BME280;5998;42.676;23.268;2023-03-16T12:08:21;94487.97;;;3.44;100.00
11878;BME280;5998;42.676;23.268;2023-03-16T12:10:53;94486.97;;;3.53;100.00
11878;BME280;5998;42.676;23.268;2023-03-16T12:13:31;94488.78;;;3.44;100.00
11878;BME280;5998;42.676;23.268;2023-03-16T12:16:08;94494.94;;;3.53;100.00
11878;BME280;5998;42.676;23.268;2023-03-16T12:18:42;94491.84;;;3.60;100.00
11878;BME280;5998;42.676;23.268;2023-03-16T12:21:14;94496.41;;;3.60;100.00
11878;BME280;5998;42.676;23.268;2023-03-16T12:23:55;94494.81;;;3.58;100.00
11878;BME280;5998;42.676;23.268;2023-03-16T12:26:27;94478.19;;;3.53;100.00
11878;BME280;5998;42.676;23.268;2023-03-16T12:28:56;94502.56;;;3.69;100.00
11878;BME280;5998;42.676;23.268;2023-03-16T12:31:34;94493.66;;;3.29;100.00
11878;BME280;5998;42.676;23.268;2023-03-16T12:34:12;94516.41;;;3.35;100.00
11878;BME280;5998;42.676;23.268;2023-03-16T12:39:50;94526.28;;;2.98;100.00
11878;BME280;5998;42.676;23.268;2023-03-16T12:42:35;94527.44;;;2.92;100.00
11878;BME280;5998;42.676;23.268;2023-03-16T12:45:10;94518.47;;;2.88;100.00
11878;BME280;5998;42.676;23.268;2023-03-16T12:47:50;94535.63;;;2.96;100.00
11878;BME280;5998;42.676;23.268;2023-03-16T12:50:20;94534.84;;;2.95;100.00
11878;BME280;5998;42.676;23.268;2023-03-16T12:52:48;94546.94;;;3.02;100.00
11878;BME280;5998;42.676;23.268;2023-03-16T12:55:18;94550.19;;;3.12;100.00
11878;BME280;5998;42.676;23.268;2023-03-16T12:57:47;94532.69;;;2.84;100.00
11878;BME280;5998;42.676;23.268;2023-03-16T13:00:17;94555.72;;;2.61;100.00
11878;BME280;5998;42.676;23.268;2023-03-16T13:02:49;94562.63;;;2.62;100.00
11878;BME280;5998;42.676;23.268;2023-03-16T13:05:27;94568.31;;;2.42;100.00
11878;BME280;5998;42.676;23.268;2023-03-16T13:08:04;94559.50;;;2.47;100.00
11878;BME280;5998;42.676;23.268;2023-03-16T13:10:32;94560.88;;;2.44;100.00
11878;BME280;5998;42.676;23.268;2023-03-16T13:13:07;94569.63;;;2.58;100.00
11878;BME280;5998;42.676;23.268;2023-03-16T13:15:36;94563.81;;;2.70;100.00
11878;BME280;5998;42.676;23.268;2023-03-16T13:18:20;94563.03;;;2.83;100.00